Time;durP1;ratioP1;P1;durP2;ratioP2;P2;SDS_P1;SDS_P2;PMS_P1;PMS_P2;Temp;Humidity;BMP_temperature;BMP_pressure;BME280_temperature;BME280_humidity;BME280_pressure;Samples;Min_cycle;Max_cycle;Signal;HPM_P1;HPM_P2
2022/09/09 00:00:19;;;;;;;1.90;0.70;;;25.10;42.10;;;;;;6205300;23;20853;-61
2022/09/09 00:03:02;;;;;;;0.97;0.80;;;25.20;42.20;;;;;;6159313;23;20415;-62
2022/09/09 00:05:36;;;;;;;0.83;0.70;;;25.10;42.10;;;;;;6175336;23;20412;-63
2022/09/09 00:08:03;;;;;;;1.93;0.80;;;25.10;42.20;;;;;;6194086;23;20505;-64
2022/09/09 00:10:42;;;;;;;0.90;0.70;;;25.20;42.20;;;;;;6199847;23;20416;-65
2022/09/09 00:13:27;;;;;;;0.80;0.70;;;25.10;42.20;;;;;;6174814;23;20412;-63
2022/09/09 00:16:22;;;;;;;0.70;0.70;;;25.10;42.10;;;;;;6176984;23;20470;-61
2022/09/09 00:19:14;;;;;;;0.70;0.70;;;25.10;42.10;;;;;;6204909;23;20411;-62
2022/09/09 00:21:58;;;;;;;0.70;0.60;;;25.10;42.20;;;;;;6186821;23;20504;-64
2022/09/09 00:24:43;;;;;;;0.70;0.60;;;25.10;42.20;;;;;;6171288;23;20416;-63
2022/09/09 00:27:17;;;;;;;0.70;0.70;;;25.20;42.20;;;;;;6172910;23;20408;-61
2022/09/09 00:29:45;;;;;;;1.00;0.60;;;25.10;42.30;;;;;;6174569;23;20499;-65
2022/09/09 00:32:17;;;;;;;0.93;0.60;;;25.10;42.20;;;;;;6172538;23;20428;-62
2022/09/09 00:35:10;;;;;;;0.90;0.70;;;25.10;42.20;;;;;;6164590;23;20523;-64
2022/09/09 00:37:37;;;;;;;0.80;0.60;;;25.10;42.20;;;;;;6172032;23;20408;-66
2022/09/09 00:40:18;;;;;;;0.70;0.63;;;25.10;42.20;;;;;;6176352;23;20840;-61
2022/09/09 00:42:45;;;;;;;0.70;0.70;;;25.10;42.30;;;;;;6173499;23;20467;-66
2022/09/09 00:45:32;;;;;;;1.17;0.83;;;25.20;42.30;;;;;;6172687;23;20428;-68
2022/09/09 00:48:05;;;;;;;0.70;0.67;;;25.10;42.20;;;;;;6183381;23;20431;-66
2022/09/09 00:51:01;;;;;;;1.10;0.80;;;25.10;42.30;;;;;;6203511;23;20597;-61
2022/09/09 00:53:32;;;;;;;0.90;0.80;;;25.10;42.20;;;;;;6201717;23;20412;-61
2022/09/09 00:56:11;;;;;;;0.80;0.70;;;25.20;42.30;;;;;;6173381;23;20447;-62
2022/09/09 00:58:37;;;;;;;0.70;0.60;;;25.10;42.30;;;;;;6187456;23;21214;-68
2022/09/09 01:01:06;;;;;;;0.63;0.60;;;25.10;42.30;;;;;;6172172;23;20515;-66
2022/09/09 01:03:32;;;;;;;0.70;0.70;;;25.10;42.30;;;;;;6181959;23;20261;-62
2022/09/09 01:06:27;;;;;;;0.70;0.70;;;25.10;42.30;;;;;;6172404;23;20818;-64
2022/09/09 01:09:12;;;;;;;0.80;0.60;;;25.10;42.30;;;;;;6178457;23;20210;-70
2022/09/09 01:12:04;;;;;;;0.60;0.60;;;25.10;42.20;;;;;;6185375;23;20463;-61
2022/09/09 01:14:36;;;;;;;0.80;0.60;;;25.10;42.30;;;;;;6186458;23;20423;-61
2022/09/09 01:17:12;;;;;;;0.97;0.83;;;25.10;42.30;;;;;;6196519;23;20736;-62
2022/09/09 01:19:39;;;;;;;0.80;0.70;;;25.10;42.30;;;;;;6203178;23;20418;-63
2022/09/09 01:22:18;;;;;;;0.70;0.63;;;25.10;42.30;;;;;;6209066;23;20548;-61
2022/09/09 01:24:53;;;;;;;0.70;0.70;;;25.10;42.30;;;;;;6173848;23;20419;-61
2022/09/09 01:27:20;;;;;;;0.60;0.50;;;25.10;42.30;;;;;;6187678;23;20421;-68
2022/09/09 01:29:46;;;;;;;0.80;0.70;;;25.10;42.30;;;;;;6203596;23;20883;-62
2022/09/09 01:32:48;;;;;;;0.70;0.67;;;25.10;43.10;;;;;;6185915;23;20494;-67
2022/09/09 01:35:19;;;;;;;0.80;0.80;;;25.10;42.30;;;;;;6169263;23;20486;-62
2022/09/09 01:37:45;;;;;;;0.70;0.60;;;25.10;42.20;;;;;;6176664;23;20416;-62
2022/09/09 01:40:10;;;;;;;0.70;0.60;;;25.10;42.30;;;;;;6172063;23;20440;-62
2022/09/09 01:42:36;;;;;;;1.10;0.67;;;25.10;42.20;;;;;;6174367;23;20226;-63
2022/09/09 01:45:03;;;;;;;0.80;0.70;;;25.10;42.30;;;;;;6175204;23;20258;-62
2022/09/09 01:47:29;;;;;;;0.80;0.80;;;25.10;42.30;;;;;;6171512;23;20408;-63
2022/09/09 01:49:54;;;;;;;0.60;0.50;;;25.10;42.30;;;;;;6173509;23;20798;-61
2022/09/09 01:52:20;;;;;;;0.93;0.80;;;25.20;42.30;;;;;;6182437;23;20202;-62
2022/09/09 01:54:46;;;;;;;0.70;0.60;;;25.10;42.20;;;;;;6207565;23;20210;-62
2022/09/09 01:57:11;;;;;;;0.73;0.60;;;25.10;42.30;;;;;;6175449;23;20204;-61
2022/09/09 02:00:08;;;;;;;1.10;0.70;;;25.10;42.30;;;;;;6161126;23;20194;-65
2022/09/09 02:02:53;;;;;;;0.70;0.70;;;25.10;42.30;;;;;;6205090;23;20393;-61
2022/09/09 02:05:30;;;;;;;0.80;0.70;;;25.10;42.30;;;;;;6182008;23;20468;-62
2022/09/09 02:08:08;;;;;;;0.70;0.60;;;25.10;42.30;;;;;;6180623;23;20439;-62
2022/09/09 02:10:37;;;;;;;1.73;0.80;;;25.10;42.30;;;;;;6198628;23;20411;-61
2022/09/09 02:13:10;;;;;;;0.80;0.70;;;25.10;42.30;;;;;;6206409;23;20419;-64
2022/09/09 02:15:43;;;;;;;0.90;0.70;;;25.10;42.30;;;;;;6204379;23;20412;-61
2022/09/09 02:18:12;;;;;;;0.83;0.70;;;25.10;42.30;;;;;;6204776;23;20473;-62
2022/09/09 02:20:38;;;;;;;0.80;0.77;;;25.10;42.30;;;;;;6201641;23;20454;-64
2022/09/09 02:23:07;;;;;;;0.60;0.60;;;25.10;42.30;;;;;;6190991;23;20423;-61
2022/09/09 02:25:35;;;;;;;1.20;0.70;;;25.10;42.30;;;;;;6175383;23;20438;-62
2022/09/09 02:28:04;;;;;;;0.80;0.70;;;25.10;42.30;;;;;;6193102;23;20471;-62
2022/09/09 02:30:34;;;;;;;1.07;0.73;;;25.10;42.30;;;;;;6205713;23;20461;-62
2022/09/09 02:33:03;;;;;;;0.70;0.60;;;25.10;42.30;;;;;;6179645;23;20474;-70
2022/09/09 02:35:31;;;;;;;0.70;0.70;;;25.10;42.30;;;;;;6173375;23;20405;-61
2022/09/09 02:38:01;;;;;;;0.80;0.80;;;25.10;42.20;;;;;;6175740;23;20423;-62
2022/09/09 02:40:26;;;;;;;0.73;0.63;;;25.10;42.30;;;;;;6180072;23;20416;-63
2022/09/09 02:42:54;;;;;;;0.67;0.60;;;25.10;42.30;;;;;;6174727;23;20422;-61
2022/09/09 02:45:25;;;;;;;0.77;0.73;;;25.10;43.10;;;;;;6175842;23;20190;-65
2022/09/09 02:47:58;;;;;;;0.70;0.70;;;25.10;43.10;;;;;;6174167;23;20467;-62
2022/09/09 02:50:43;;;;;;;1.00;0.80;;;25.10;42.30;;;;;;6181734;23;20426;-64
2022/09/09 02:53:17;;;;;;;0.87;0.70;;;25.10;43.00;;;;;;6168052;23;20424;-61
2022/09/09 02:56:13;;;;;;;0.70;0.63;;;25.10;42.30;;;;;;6175439;23;20922;-64
2022/09/09 02:58:39;;;;;;;0.70;0.60;;;25.10;42.30;;;;;;6170638;23;20416;-62
2022/09/09 03:01:05;;;;;;;0.80;0.70;;;25.10;43.10;;;;;;6168150;23;20432;-64
2022/09/09 03:03:31;;;;;;;0.90;0.70;;;25.10;42.30;;;;;;6172374;23;20925;-68
2022/09/09 03:05:57;;;;;;;0.60;0.60;;;25.10;42.30;;;;;;6170322;23;20618;-62
2022/09/09 03:08:23;;;;;;;0.70;0.70;;;25.10;42.30;;;;;;6175934;23;20416;-63
2022/09/09 03:10:49;;;;;;;0.90;0.70;;;25.10;42.30;;;;;;6188718;23;20617;-61
2022/09/09 03:13:15;;;;;;;1.10;0.70;;;25.10;42.30;;;;;;6203470;23;20415;-61
2022/09/09 03:15:40;;;;;;;1.10;0.90;;;25.10;42.30;;;;;;6203552;23;20186;-61
2022/09/09 03:18:06;;;;;;;0.63;0.60;;;25.10;42.30;;;;;;6195892;23;20741;-61
2022/09/09 03:20:32;;;;;;;0.80;0.70;;;25.10;42.20;;;;;;6174183;23;20260;-63
2022/09/09 03:22:59;;;;;;;0.80;0.70;;;25.10;42.30;;;;;;6173427;23;20629;-61
2022/09/09 03:25:25;;;;;;;0.90;0.80;;;25.10;42.30;;;;;;6175841;23;20199;-61
2022/09/09 03:27:54;;;;;;;0.90;0.80;;;25.10;42.30;;;;;;6173971;23;20530;-61
2022/09/09 03:30:23;;;;;;;1.17;0.90;;;25.10;42.20;;;;;;6174842;23;20506;-61
2022/09/09 03:32:48;;;;;;;0.67;0.67;;;25.10;42.30;;;;;;6178284;23;20411;-60
2022/09/09 03:35:15;;;;;;;0.90;0.70;;;25.10;42.30;;;;;;6172999;23;20746;-61
2022/09/09 03:37:41;;;;;;;0.70;0.60;;;25.10;42.30;;;;;;6173515;23;20622;-61
2022/09/09 03:40:09;;;;;;;0.90;0.70;;;25.10;42.30;;;;;;6184654;23;20435;-63
2022/09/09 03:42:36;;;;;;;0.70;0.60;;;25.10;42.30;;;;;;6185719;23;20404;-64
2022/09/09 03:45:06;;;;;;;0.77;0.70;;;25.10;42.30;;;;;;6185222;23;20432;-62
2022/09/09 03:47:32;;;;;;;0.93;0.77;;;25.10;42.30;;;;;;6172522;23;20415;-63
2022/09/09 03:49:58;;;;;;;0.77;0.70;;;25.10;42.30;;;;;;6174325;23;20415;-64
2022/09/09 03:52:25;;;;;;;0.80;0.70;;;25.10;42.30;;;;;;6175621;23;20416;-62
2022/09/09 03:54:52;;;;;;;0.70;0.70;;;25.10;42.30;;;;;;6172521;23;20651;-62
2022/09/09 03:57:18;;;;;;;1.10;0.60;;;25.10;42.20;;;;;;6174669;23;20495;-61
2022/09/09 03:59:44;;;;;;;0.90;0.73;;;25.10;42.30;;;;;;6175944;23;20423;-63
2022/09/09 04:02:10;;;;;;;0.90;0.73;;;25.10;42.20;;;;;;6171063;23;20424;-61
2022/09/09 04:04:35;;;;;;;1.10;0.70;;;25.10;42.20;;;;;;6176497;23;20241;-67
2022/09/09 04:07:01;;;;;;;1.20;0.80;;;25.10;42.30;;;;;;6192073;23;20225;-61
2022/09/09 04:09:27;;;;;;;0.60;0.60;;;25.10;42.30;;;;;;6181120;23;20671;-67
2022/09/09 04:11:53;;;;;;;0.60;0.60;;;25.10;42.30;;;;;;6181666;23;20428;-62
2022/09/09 04:14:19;;;;;;;0.80;0.77;;;25.10;42.20;;;;;;6173740;23;20228;-61
2022/09/09 04:16:44;;;;;;;0.80;0.70;;;25.10;42.30;;;;;;6180858;23;20218;-62
2022/09/09 04:19:13;;;;;;;0.73;0.73;;;25.10;42.20;;;;;;6174713;23;20895;-66
2022/09/09 04:21:39;;;;;;;0.87;0.80;;;25.10;42.20;;;;;;6169328;23;20209;-67
2022/09/09 04:24:06;;;;;;;0.80;0.70;;;25.10;42.20;;;;;;6173644;23;20412;-65
2022/09/09 04:26:32;;;;;;;0.77;0.70;;;25.10;42.20;;;;;;6195138;23;20511;-67
2022/09/09 04:28:58;;;;;;;1.10;0.80;;;25.10;42.20;;;;;;6179550;23;20432;-65
2022/09/09 04:31:24;;;;;;;0.73;0.73;;;25.10;42.10;;;;;;6174240;23;20195;-62
2022/09/09 04:33:50;;;;;;;0.80;0.80;;;25.10;42.10;;;;;;6178453;23;20561;-61
2022/09/09 04:36:18;;;;;;;0.90;0.80;;;25.10;42.00;;;;;;6183567;23;20202;-62
2022/09/09 04:38:44;;;;;;;1.23;0.90;;;25.20;42.10;;;;;;6200038;23;20190;-61
2022/09/09 04:41:11;;;;;;;1.67;1.00;;;25.20;42.00;;;;;;6149238;23;20424;-60
2022/09/09 04:43:37;;;;;;;0.97;0.97;;;25.20;42.00;;;;;;6153252;23;20415;-66
2022/09/09 04:46:03;;;;;;;0.77;0.70;;;25.20;42.00;;;;;;6174469;23;20446;-61
2022/09/09 04:48:31;;;;;;;0.87;0.70;;;25.20;42.00;;;;;;6162549;23;20440;-64
2022/09/09 04:51:04;;;;;;;1.03;0.87;;;25.20;42.00;;;;;;6172449;23;20409;-63
2022/09/09 04:53:30;;;;;;;1.63;0.70;;;25.20;41.90;;;;;;6169079;23;20427;-61
2022/09/09 04:56:14;;;;;;;1.07;0.70;;;25.20;42.00;;;;;;6171977;23;20937;-62
2022/09/09 04:58:43;;;;;;;1.10;1.00;;;25.20;41.90;;;;;;6181277;23;20424;-66
2022/09/09 05:01:14;;;;;;;0.90;0.80;;;25.20;41.90;;;;;;6166575;23;20419;-61
2022/09/09 05:03:39;;;;;;;1.33;0.90;;;25.20;42.00;;;;;;6157483;23;20880;-65
2022/09/09 05:06:11;;;;;;;1.10;0.87;;;25.20;42.00;;;;;;6197570;23;20412;-64
2022/09/09 05:08:38;;;;;;;1.00;0.90;;;25.20;41.90;;;;;;6166313;23;20487;-63
2022/09/09 05:11:16;;;;;;;1.37;0.80;;;25.20;41.90;;;;;;6171868;23;20463;-71
2022/09/09 05:13:42;;;;;;;1.57;0.97;;;25.20;41.90;;;;;;6171002;23;20412;-63
2022/09/09 05:16:10;;;;;;;1.00;0.83;;;25.20;42.00;;;;;;6175360;23;20458;-62
2022/09/09 05:18:37;;;;;;;1.10;1.00;;;25.20;41.90;;;;;;6173207;23;20415;-70
2022/09/09 05:21:02;;;;;;;1.73;1.63;;;25.20;41.90;;;;;;6180587;23;20447;-60
2022/09/09 05:23:28;;;;;;;1.30;1.00;;;25.20;41.90;;;;;;6167781;23;20463;-62
2022/09/09 05:25:56;;;;;;;1.57;0.80;;;25.20;41.90;;;;;;6171801;23;20193;-67
2022/09/09 05:28:23;;;;;;;0.90;0.80;;;25.20;41.90;;;;;;6172400;23;20194;-67
2022/09/09 05:31:08;;;;;;;1.00;0.90;;;25.20;41.90;;;;;;6173356;23;20427;-62
2022/09/09 05:33:35;;;;;;;3.00;0.97;;;25.20;41.90;;;;;;6171121;23;20463;-64
2022/09/09 05:36:23;;;;;;;0.80;0.80;;;25.20;41.90;;;;;;6197420;23;20399;-70
2022/09/09 05:38:49;;;;;;;1.10;1.00;;;25.20;41.80;;;;;;6192783;23;20415;-62
2022/09/09 05:41:17;;;;;;;1.83;1.00;;;25.20;41.90;;;;;;6202130;23;20497;-61
2022/09/09 05:43:49;;;;;;;0.90;0.90;;;25.20;42.60;;;;;;6172198;23;20418;-64
2022/09/09 05:46:17;;;;;;;1.30;0.90;;;25.20;41.90;;;;;;6173061;23;20487;-67
2022/09/09 05:48:47;;;;;;;1.80;0.80;;;25.20;41.80;;;;;;6169944;23;20437;-63
2022/09/09 05:51:21;;;;;;;2.53;1.10;;;25.20;41.90;;;;;;6166147;23;21013;-64
2022/09/09 05:53:48;;;;;;;1.10;0.90;;;25.20;41.80;;;;;;6172145;23;20419;-64
2022/09/09 05:56:19;;;;;;;1.30;1.10;;;25.20;41.80;;;;;;6167855;23;20419;-63
2022/09/09 05:58:49;;;;;;;1.07;0.90;;;25.20;41.80;;;;;;6200000;23;20426;-62
2022/09/09 06:01:17;;;;;;;1.07;0.97;;;25.20;41.80;;;;;;6198412;23;20881;-63
2022/09/09 06:03:44;;;;;;;1.47;1.20;;;25.20;41.80;;;;;;6166696;23;20420;-64
2022/09/09 06:06:31;;;;;;;1.20;0.93;;;25.20;41.80;;;;;;6166959;23;20424;-69
2022/09/09 06:08:58;;;;;;;1.10;1.00;;;25.20;41.80;;;;;;6169405;23;20473;-64
2022/09/09 06:11:26;;;;;;;1.40;1.13;;;25.20;41.80;;;;;;6171101;23;20788;-62
2022/09/09 06:13:54;;;;;;;0.97;0.80;;;25.20;41.70;;;;;;6169202;23;20404;-64
2022/09/09 06:16:25;;;;;;;1.67;1.00;;;25.20;41.70;;;;;;6174255;23;20433;-66
2022/09/09 06:18:51;;;;;;;0.90;0.90;;;25.20;41.70;;;;;;6168312;23;20423;-65
2022/09/09 06:21:44;;;;;;;1.33;1.03;;;25.20;41.80;;;;;;6161832;23;20437;-63
2022/09/09 06:24:10;;;;;;;1.00;0.80;;;25.20;41.70;;;;;;6164360;23;20415;-63
2022/09/09 06:26:42;;;;;;;1.27;1.03;;;25.20;41.70;;;;;;6143913;23;20936;-63
2022/09/09 06:29:08;;;;;;;2.80;1.43;;;25.20;41.70;;;;;;6163303;23;20416;-63
2022/09/09 06:31:36;;;;;;;0.83;0.80;;;25.20;41.70;;;;;;6200728;23;20426;-63
2022/09/09 06:34:05;;;;;;;1.00;0.90;;;25.20;41.80;;;;;;6203945;23;20193;-69
2022/09/09 06:36:32;;;;;;;1.00;0.90;;;25.20;41.70;;;;;;6180101;23;20408;-64
2022/09/09 06:38:59;;;;;;;1.00;1.00;;;25.20;41.70;;;;;;6163640;23;20675;-63
2022/09/09 06:41:27;;;;;;;0.80;0.80;;;25.20;41.70;;;;;;6195525;23;20458;-63
2022/09/09 06:43:53;;;;;;;1.07;0.90;;;25.20;41.70;;;;;;6200768;23;20451;-68
2022/09/09 06:46:27;;;;;;;1.10;1.00;;;25.20;41.70;;;;;;6193359;23;20419;-61
2022/09/09 06:48:55;;;;;;;2.07;1.00;;;25.20;41.80;;;;;;6144443;23;20584;-62
2022/09/09 06:51:23;;;;;;;1.67;1.10;;;25.20;41.70;;;;;;6144984;23;20460;-60
2022/09/09 06:53:53;;;;;;;1.23;0.70;;;25.20;41.80;;;;;;6145342;23;20784;-61
2022/09/09 06:56:34;;;;;;;1.30;1.10;;;25.20;41.70;;;;;;6140926;23;20453;-60
2022/09/09 06:59:03;;;;;;;1.90;1.07;;;25.20;41.80;;;;;;6135902;23;20432;-64
2022/09/09 07:01:31;;;;;;;4.20;1.10;;;25.20;41.70;;;;;;6130620;23;20436;-64
2022/09/09 07:03:58;;;;;;;3.27;1.20;;;25.20;41.80;;;;;;6141881;23;20440;-64
2022/09/09 07:06:25;;;;;;;1.20;1.10;;;25.20;41.80;;;;;;6142055;23;20420;-60
2022/09/09 07:08:53;;;;;;;1.30;1.20;;;25.20;41.70;;;;;;6143752;23;20443;-64
2022/09/09 07:11:20;;;;;;;1.93;1.10;;;25.20;41.70;;;;;;6138196;23;20425;-59
2022/09/09 07:13:47;;;;;;;1.77;1.10;;;25.20;41.70;;;;;;6160793;23;20901;-63
2022/09/09 07:16:15;;;;;;;1.63;1.00;;;25.20;41.70;;;;;;6139793;23;20428;-61
2022/09/09 07:18:42;;;;;;;4.77;1.00;;;25.20;41.60;;;;;;6134046;23;20409;-63
2022/09/09 07:21:11;;;;;;;0.90;0.80;;;25.20;41.70;;;;;;6142608;23;20429;-64
2022/09/09 07:23:38;;;;;;;1.20;1.10;;;25.10;41.40;;;;;;6151729;23;20472;-61
2022/09/09 07:26:13;;;;;;;1.40;0.90;;;25.10;41.40;;;;;;6145443;23;20428;-62
2022/09/09 07:28:39;;;;;;;2.00;1.00;;;25.10;41.40;;;;;;6135984;23;20411;-59
2022/09/09 07:31:06;;;;;;;1.70;1.07;;;25.10;41.30;;;;;;6136804;23;20413;-60
2022/09/09 07:33:34;;;;;;;1.87;1.00;;;25.10;41.20;;;;;;6168195;23;20408;-60
2022/09/09 07:36:09;;;;;;;1.30;0.90;;;25.10;41.20;;;;;;6141411;23;20460;-62
2022/09/09 07:38:56;;;;;;;1.10;1.00;;;25.10;41.10;;;;;;6135794;23;20435;-60
2022/09/09 07:41:33;;;;;;;1.70;1.00;;;25.10;41.10;;;;;;6137229;23;20451;-62
2022/09/09 07:44:00;;;;;;;1.30;0.87;;;25.10;41.00;;;;;;6131041;23;20416;-62
2022/09/09 07:46:26;;;;;;;1.10;0.90;;;25.10;40.80;;;;;;6146955;23;20516;-61
2022/09/09 07:48:54;;;;;;;1.57;0.97;;;25.10;40.80;;;;;;6154280;23;20523;-60
2022/09/09 07:51:24;;;;;;;1.27;1.00;;;25.10;40.70;;;;;;6180184;23;20431;-63
2022/09/09 07:53:57;;;;;;;1.30;0.90;;;25.10;40.70;;;;;;6188222;23;20443;-64
2022/09/09 07:56:23;;;;;;;1.10;1.00;;;25.10;40.60;;;;;;6164446;23;20507;-61
2022/09/09 07:58:50;;;;;;;1.20;1.00;;;25.10;40.50;;;;;;6171356;23;20507;-63
2022/09/09 08:01:22;;;;;;;1.77;1.00;;;25.10;40.50;;;;;;6175421;23;20206;-60
2022/09/09 08:03:59;;;;;;;0.80;0.70;;;25.10;40.40;;;;;;6168858;23;20417;-60
2022/09/09 08:06:26;;;;;;;1.63;1.00;;;25.10;40.30;;;;;;6167195;23;20423;-61
2022/09/09 08:08:54;;;;;;;1.10;0.90;;;25.00;40.30;;;;;;6162553;23;20412;-61
2022/09/09 08:11:22;;;;;;;1.33;1.03;;;25.00;40.20;;;;;;6158080;23;20515;-60
2022/09/09 08:13:51;;;;;;;1.83;1.20;;;25.00;40.20;;;;;;6168230;23;20412;-61
2022/09/09 08:16:22;;;;;;;1.50;1.00;;;25.00;40.10;;;;;;6174117;23;20424;-61
2022/09/09 08:18:49;;;;;;;1.20;0.90;;;25.00;40.10;;;;;;6171456;23;20448;-61
2022/09/09 08:21:23;;;;;;;1.23;0.90;;;25.00;40.10;;;;;;6189354;23;20436;-60
2022/09/09 08:23:52;;;;;;;1.00;0.90;;;25.00;40.00;;;;;;6186519;23;20423;-61
2022/09/09 08:26:39;;;;;;;1.10;1.00;;;25.00;40.00;;;;;;6170362;23;20424;-62
2022/09/09 08:29:07;;;;;;;1.87;1.00;;;25.00;40.00;;;;;;6191774;23;20423;-60
2022/09/09 08:31:38;;;;;;;1.10;1.00;;;25.00;39.90;;;;;;6170017;23;20423;-59
2022/09/09 08:34:05;;;;;;;1.20;1.10;;;25.00;39.80;;;;;;6186448;23;20420;-60
2022/09/09 08:36:37;;;;;;;1.10;0.90;;;25.00;39.80;;;;;;6166981;23;20423;-61
2022/09/09 08:39:05;;;;;;;1.13;1.00;;;25.00;39.80;;;;;;6181368;23;20438;-62
2022/09/09 08:42:01;;;;;;;1.23;0.90;;;25.00;39.70;;;;;;6173678;23;20464;-59
2022/09/09 08:44:39;;;;;;;1.17;0.97;;;25.00;39.80;;;;;;6193951;23;20452;-63
2022/09/09 08:47:11;;;;;;;1.33;1.00;;;25.00;39.70;;;;;;6195242;23;20419;-59
2022/09/09 08:49:50;;;;;;;1.10;0.90;;;25.00;39.60;;;;;;6180019;23;20436;-60
2022/09/09 08:52:30;;;;;;;0.90;0.87;;;25.00;39.60;;;;;;6170315;23;20499;-60
2022/09/09 08:55:04;;;;;;;1.00;0.87;;;25.00;39.60;;;;;;6185273;23;20502;-59
2022/09/09 08:57:31;;;;;;;1.00;0.90;;;25.00;39.60;;;;;;6186212;23;20417;-58
2022/09/09 08:59:59;;;;;;;0.90;0.80;;;25.00;39.60;;;;;;6193671;23;20470;-60
2022/09/09 09:02:40;;;;;;;1.23;0.90;;;25.00;39.60;;;;;;6190144;23;20435;-64
2022/09/09 09:05:18;;;;;;;1.00;0.80;;;25.00;39.60;;;;;;6195540;23;20418;-59
2022/09/09 09:07:50;;;;;;;0.93;0.87;;;25.00;39.60;;;;;;6168273;23;20457;-59
2022/09/09 09:10:49;;;;;;;1.30;1.20;;;25.00;39.60;;;;;;6170208;23;20428;-59
2022/09/09 09:13:24;;;;;;;1.13;0.90;;;25.00;39.70;;;;;;6161759;23;20473;-61
2022/09/09 09:15:59;;;;;;;1.70;0.90;;;25.00;39.60;;;;;;6167394;23;20428;-61
2022/09/09 09:18:27;;;;;;;2.07;0.90;;;25.00;39.70;;;;;;6165253;23;20429;-60
2022/09/09 09:20:52;;;;;;;0.97;0.87;;;25.00;39.70;;;;;;6167233;23;20531;-59
2022/09/09 09:23:35;;;;;;;1.20;1.00;;;25.00;39.70;;;;;;6159608;23;20523;-60
2022/09/09 09:26:01;;;;;;;1.10;1.00;;;25.00;39.70;;;;;;6170830;23;20600;-60
2022/09/09 09:28:33;;;;;;;1.50;0.93;;;25.00;39.70;;;;;;6156597;23;20435;-59
2022/09/09 09:31:10;;;;;;;1.33;1.03;;;25.00;39.70;;;;;;6165862;23;20432;-62
2022/09/09 09:33:49;;;;;;;1.97;1.00;;;25.00;39.70;;;;;;6180310;23;20412;-60
2022/09/09 09:36:15;;;;;;;1.20;0.97;;;25.00;39.80;;;;;;6172439;23;20421;-59
2022/09/09 09:38:57;;;;;;;1.33;0.90;;;25.00;39.80;;;;;;6169829;23;20414;-61
2022/09/09 09:41:55;;;;;;;2.07;1.00;;;25.00;39.80;;;;;;6195772;23;20431;-60
2022/09/09 09:44:32;;;;;;;0.93;0.80;;;25.00;39.80;;;;;;6133460;23;20907;-59
2022/09/09 09:47:14;;;;;;;1.23;1.13;;;25.00;39.80;;;;;;6169469;23;21230;-60
2022/09/09 09:49:53;;;;;;;1.47;1.37;;;25.00;39.90;;;;;;6176158;23;20427;-61
2022/09/09 09:52:24;;;;;;;0.97;0.87;;;25.00;39.90;;;;;;6166332;23;20416;-61
2022/09/09 09:54:51;;;;;;;1.47;0.97;;;25.00;40.00;;;;;;6171256;23;20420;-60
2022/09/09 09:57:18;;;;;;;1.63;1.00;;;25.00;40.00;;;;;;6175937;23;20432;-60
2022/09/09 09:59:45;;;;;;;1.00;0.90;;;25.00;40.00;;;;;;6165339;23;20427;-63
2022/09/09 10:02:18;;;;;;;1.20;1.07;;;25.00;40.00;;;;;;6168032;23;20424;-59
2022/09/09 10:04:45;;;;;;;1.10;0.97;;;25.00;40.00;;;;;;6165718;23;20416;-63
2022/09/09 10:07:21;;;;;;;1.07;0.97;;;25.00;40.00;;;;;;6167092;23;20428;-60
2022/09/09 10:09:54;;;;;;;1.10;1.00;;;25.00;40.00;;;;;;6182088;23;20415;-63
2022/09/09 10:12:40;;;;;;;1.00;0.80;;;25.00;40.00;;;;;;6197889;23;20430;-60
2022/09/09 10:15:24;;;;;;;1.17;0.90;;;25.00;39.90;;;;;;6185950;23;20415;-65
2022/09/09 10:18:18;;;;;;;1.00;0.90;;;25.00;40.00;;;;;;6185445;23;20529;-65
2022/09/09 10:21:17;;;;;;;1.10;1.00;;;25.00;39.80;;;;;;6165066;23;20718;-64
2022/09/09 10:24:11;;;;;;;1.10;0.90;;;25.00;39.90;;;;;;6172205;23;20416;-61
2022/09/09 10:26:52;;;;;;;2.43;1.63;;;25.00;39.90;;;;;;6185991;23;20424;-62
2022/09/09 10:29:27;;;;;;;1.23;1.13;;;25.00;40.70;;;;;;6164855;23;20452;-60
2022/09/09 10:31:53;;;;;;;1.10;1.00;;;25.00;40.00;;;;;;6153865;23;20431;-62
2022/09/09 10:34:57;;;;;;;1.07;0.97;;;25.00;39.90;;;;;;6173974;23;20423;-61
2022/09/09 10:37:42;;;;;;;1.43;1.03;;;25.00;39.80;;;;;;6165858;23;20194;-60
2022/09/09 10:40:25;;;;;;;1.03;0.93;;;25.00;39.90;;;;;;6162366;23;20416;-62
2022/09/09 10:42:55;;;;;;;1.73;0.90;;;25.00;40.00;;;;;;6164596;23;20409;-60
2022/09/09 10:45:34;;;;;;;1.00;0.80;;;24.90;39.80;;;;;;6170700;23;20494;-58
2022/09/09 10:48:21;;;;;;;0.90;0.80;;;24.90;39.80;;;;;;6177398;23;20511;-60
2022/09/09 10:50:57;;;;;;;1.23;0.93;;;25.00;39.80;;;;;;6155686;23;20412;-61
2022/09/09 10:53:36;;;;;;;6.43;1.00;;;24.90;39.80;;;;;;6160873;23;20424;-64
2022/09/09 10:56:08;;;;;;;0.90;0.80;;;24.90;39.80;;;;;;6169735;23;20415;-62
2022/09/09 10:58:43;;;;;;;1.63;1.07;;;25.00;39.80;;;;;;6182854;23;20519;-64
2022/09/09 11:01:46;;;;;;;1.03;0.97;;;24.90;39.70;;;;;;6184332;23;20461;-62
2022/09/09 11:04:20;;;;;;;0.97;0.80;;;24.90;40.50;;;;;;6162101;23;20419;-60
2022/09/09 11:06:52;;;;;;;0.80;0.80;;;24.90;39.70;;;;;;6165305;23;20420;-61
2022/09/09 11:09:23;;;;;;;1.10;0.80;;;24.90;40.50;;;;;;6173688;23;20622;-60
2022/09/09 11:11:57;;;;;;;0.70;0.70;;;24.90;39.60;;;;;;6147711;23;20629;-64
2022/09/09 11:15:04;;;;;;;1.47;1.20;;;24.90;39.60;;;;;;6168619;23;20435;-65
2022/09/09 11:17:54;;;;;;;1.53;1.20;;;24.90;39.60;;;;;;6143499;23;20467;-59
2022/09/09 11:20:20;;;;;;;1.10;0.90;;;24.90;39.60;;;;;;6182430;23;20426;-63
2022/09/09 11:23:00;;;;;;;0.83;0.80;;;24.90;39.70;;;;;;6197951;23;20757;-61
2022/09/09 11:25:34;;;;;;;1.07;0.90;;;24.90;39.60;;;;;;6174343;23;22043;-61
2022/09/09 11:28:09;;;;;;;0.97;0.90;;;24.90;39.70;;;;;;6165802;23;20424;-62
2022/09/09 11:31:26;;;;;;;1.03;0.93;;;24.90;39.60;;;;;;6172163;23;20472;-61
2022/09/09 11:34:01;;;;;;;1.20;0.90;;;24.90;39.70;;;;;;6138615;23;20425;-65
2022/09/09 11:36:42;;;;;;;1.00;0.80;;;24.90;39.70;;;;;;6156823;23;20627;-65
2022/09/09 11:39:36;;;;;;;1.20;1.00;;;24.90;39.70;;;;;;6164066;23;20506;-62
2022/09/09 11:42:17;;;;;;;1.27;0.80;;;24.90;39.70;;;;;;6177308;23;20435;-62
2022/09/09 11:44:43;;;;;;;1.23;1.13;;;24.90;39.70;;;;;;6147133;23;20959;-62
2022/09/09 11:47:29;;;;;;;1.13;1.00;;;24.90;39.70;;;;;;6187550;23;20891;-63
2022/09/09 11:50:27;;;;;;;1.63;0.90;;;24.90;39.70;;;;;;6165156;23;20214;-60
2022/09/09 11:53:13;;;;;;;0.80;0.80;;;24.90;39.60;;;;;;6184398;23;20426;-65
2022/09/09 11:55:39;;;;;;;1.07;0.77;;;24.90;39.60;;;;;;6154747;23;20464;-61
2022/09/09 11:58:10;;;;;;;1.17;0.90;;;24.90;39.60;;;;;;6180041;23;20893;-64
2022/09/09 12:00:47;;;;;;;1.50;0.90;;;24.90;39.60;;;;;;6177635;23;20505;-61
2022/09/09 12:03:48;;;;;;;1.00;0.90;;;24.90;39.40;;;;;;6190368;23;20423;-62
2022/09/09 12:06:20;;;;;;;1.03;0.90;;;24.90;39.40;;;;;;6161194;23;20421;-63
2022/09/09 12:08:51;;;;;;;1.23;1.00;;;24.90;39.40;;;;;;6168398;23;20471;-60
2022/09/09 12:11:30;;;;;;;1.27;0.90;;;24.90;39.40;;;;;;6175860;23;20428;-65
2022/09/09 12:13:59;;;;;;;0.80;0.80;;;24.90;39.40;;;;;;6170459;23;20389;-61
2022/09/09 12:16:37;;;;;;;1.20;1.00;;;24.90;39.40;;;;;;6169730;23;20477;-64
2022/09/09 12:19:18;;;;;;;1.00;0.80;;;24.90;39.30;;;;;;6168174;23;20419;-62
2022/09/09 12:22:00;;;;;;;1.20;0.90;;;24.90;39.30;;;;;;6180204;23;20428;-65
2022/09/09 12:25:00;;;;;;;1.03;0.93;;;24.90;39.20;;;;;;6172849;23;20419;-64
2022/09/09 12:27:42;;;;;;;1.13;0.80;;;24.90;39.20;;;;;;6168016;23;20409;-60
2022/09/09 12:30:15;;;;;;;3.60;1.23;;;24.90;39.20;;;;;;6163521;23;20482;-61
2022/09/09 12:32:41;;;;;;;1.10;1.00;;;24.90;39.10;;;;;;6167882;23;20917;-63
2022/09/09 12:35:21;;;;;;;1.87;1.20;;;24.90;39.20;;;;;;6164127;23;20408;-61
2022/09/09 12:38:02;;;;;;;1.87;0.80;;;24.90;39.10;;;;;;6166340;23;20217;-63
2022/09/09 12:40:35;;;;;;;0.90;0.90;;;24.90;39.20;;;;;;6164832;23;20945;-61
2022/09/09 12:43:21;;;;;;;1.07;0.90;;;24.90;39.10;;;;;;6175010;23;20412;-61
2022/09/09 12:45:50;;;;;;;2.80;1.10;;;24.90;39.10;;;;;;6198546;23;20468;-63
2022/09/09 12:48:19;;;;;;;1.00;0.90;;;24.90;39.10;;;;;;6173771;23;20436;-65
2022/09/09 12:50:51;;;;;;;0.90;0.90;;;24.90;39.10;;;;;;6165172;23;20965;-60
2022/09/09 12:53:26;;;;;;;2.90;1.10;;;24.90;39.10;;;;;;6169527;23;20416;-62
2022/09/09 12:56:07;;;;;;;1.47;1.17;;;24.90;39.10;;;;;;6167017;23;20915;-61
2022/09/09 12:58:34;;;;;;;1.00;0.90;;;24.90;39.10;;;;;;6193850;23;20491;-64
2022/09/09 13:01:05;;;;;;;0.77;0.77;;;24.90;39.10;;;;;;6165328;23;20439;-63
2022/09/09 13:03:33;;;;;;;1.57;0.93;;;24.90;39.10;;;;;;6190317;23;20778;-64
2022/09/09 13:06:12;;;;;;;1.00;0.87;;;24.90;39.20;;;;;;6185260;23;20411;-64
2022/09/09 13:08:38;;;;;;;0.93;0.80;;;24.90;39.20;;;;;;6177100;23;20419;-63
2022/09/09 13:11:10;;;;;;;1.00;0.90;;;24.90;39.30;;;;;;6182646;23;20499;-64
2022/09/09 13:13:43;;;;;;;1.40;0.77;;;24.90;39.20;;;;;;6176615;23;20409;-62
2022/09/09 13:16:32;;;;;;;1.00;0.90;;;24.90;39.30;;;;;;6173465;23;20424;-65
2022/09/09 13:19:13;;;;;;;1.40;0.90;;;24.90;39.40;;;;;;6188499;23;20419;-63